Change Date:Time:

Metar of : 9/28/2022 1900UTC
50%84%84%77%77%84%73%10%
 Station  Wind Direction  Speed  Visibility Clouds Temperature Pressure Humidity
OPAK 00000KT 6000 NSC 27/21 Q1002 69%
ATTOCK --- 00KT 6000m Clear 27oC 1002hp 69%
OPBR 00000KT 6000 NSC 29/23 71%
BAHAWALNAGAR --- 00KT 6000m Clear 29oC 71%
OPBW 31004KT 3500 FU NSC 29/22 Q1006 64%
BAHAWALPUR A/P NW 04KT 3500m Smoke Haze 29oC 1006hp 64%
OPBKN 281900Z 00000KT CAVOK 22/11 RH50%
BAR KHAN --- 00KT Cloudy 22oC 50%
OPBKR 00000KT 6000 NSC 29/25 78%
BHAKKAR --- 00KT 6000m Clear 29oC 78%
OPCK 00000KT 7000 NSC 26/21 74%
CHAKWAL --- 00KT 7000m Clear 26oC 74%
OPDG 23002KT 4000 FU NSC 27/23 Q1003 81%
D G KHAN SW 02KT 4000m Smoke Haze 27oC 1003hp 81%
OPDI 05002KT 6000 NSC 27/24 Q1005 81%
D I Khan A/P NE 02KT 6000m Clear 27oC 1005hp 81%
OPFA 09002KT 4000 FU NSC 28/24 Q1006 NOSIG 77%
FAISALABAD E 02KT 4000m Smoke Haze 28oC 1006hp 77%
OPGP 00000KT 8000 NSC 22/17 71%
GARHI DOPATTA --- 00KT 8000m Clear 22oC 71%
OPGD 281900Z 00000KT 3000 BR SCT020 27/24 Q1006 RH84%
GAWADAR --- 00KT 3000m Mist 27oC 1006hp 84%
OPGW 00000KT CAVOK 27/24 84%
GUJRANWALA --- 00KT Clear 27oC 84%
OPUG 00000KT 5000 FU NSC 28/22 70%
GUJRAT --- 00KT 5000m Smoke Haze 28oC 70%
OPHD 00000KT 5000 FU NSC 25/22 84%
HAFIZABAD --- 00KT 5000m Smoke Haze 25oC 84%
OPKD 281900Z 22008KT 6000 NSC 27/24 Q1006 RH84%
HYDERABAD SW 08KT 6000m Clear 27oC 1006hp 84%
OPIS 05006KT 6000 NSC 25/21 Q1007 NOSIG RH77%
ISLAMABAD A/P NE 06KT 6000m Clear 25oC 1007hp 77%
OPHQ 00000KT 6000 NSC 24/22 Q1005 RH 92%
ISLAMABAD CITY --- 00KT 6000m Clear 24oC 1005hp 92%
OPJG 00000KT 5000 FU NSC 27/22 Q1005 77%
JHANG --- 00KT Smoke Haze 27oC 1005hp 77%
OPJM 00000KT 5000 FU NSC 27/22 77%
JHELUM --- 00KT 5000m Smoke Haze 27oC 77%
OPJBD 00000KT 2500 BR NSC 28/25 88%
JOHARABAD --- 00KT Mist 28oC 88%
OPKC 281900Z 25006KT 6000 SCT020 28/23 Q1006 RH77%
KARACHI WSW 06KT 6000m Partly Cloudy 28oC 1006hp 77%
OPKRL 00000KT 5000 FU NSC 28/25 85%
KAROR (LAYYAH) --- 00KT 5000m Smoke Haze 28oC 85%
OPKS 00000KT 4000 FU NSC 27/24 88%
KASUR --- 00KT 4000m 88%
OPKW 00000KT 4000 FU NSC 27/22 Q1004 73%
KHANEWAL --- 00KT 4000m Smoke Haze 27oC 1004hp 73%
OPKP 00000KT 4000 FU NSC 26/22 80%
KHANPUR --- 00KT 4000m Smoke Haze 26oC 80%
OPKAD 00000KT 5000 FU NSC 29/24 Q1005 74%
KOT ADDU --- 00KT 5000m Smoke Haze 29oC 1005hp 74%
OPKL 00000KT 6000 NSC 27/22 74%
KOTLI --- 00KT 6000m Clear 27oC 74%
OPLA 00000KT 4000 FU NSC 27/22 Q1006 A2971 NOSIG 73%
LAHORE A/P --- 00KT 4000m Smoke Haze 27oC 1006hp 73%
OPBL 281900Z 01302KT 6000 NSC 27/23 RH84%
LASBELLA NNE 02KT 6000m Clear 27oC 84%
OPMB 00000KT 4000 FU NSC 28/24 Q1006 81%
MANDI BAHAUDDIN --- 00KT 4000m Smoke Haze 28oC 1006hp 81%
OPMA 00000KT 6000 NSC 28/23 Q1008 74%
MANGLA --- 00KT 6000m Clear 28oC 1008hp 74%
OPMPK 281800Z 23004KT 6000 SKC 27/22 Q1007 RH73%
MIR PUR KHAS SW 04KT 6000m Clear 27oC 1007hp 73%
OPMT 00000KT 4000 FU NSC 29/20 Q1004 NOSIG 61%
MULTAN A/P --- 00KT 4000m Smoke Haze 29oC 1004hp 61%
OPME 13002KT 6000 NSC 17/12 77%
MURREE SE 02KT 6000m Clear 17oC 77%
OPMF 00000KT 6000 NSC 21/17 79%
MUZAFFARABAD A/P --- 00KT 6000m Clear 21oC 79%
OPNL 00000KT 2500 BR NSC 26/24 Q1004 88%
NAROWAL --- 00KT 2500m Mist 26oC 1004hp 88%
OPNK 281900Z 31502KT 4000 DU 27/M07 Q1002 RH10%
NOKKUNDI NW 02KT 4000m Dust Haze 27oC 1002hp 10%
OPNPT 00000KT 6000 NSC 28/23 81%
NOOR PUR THAL --- 00KT 6000m Clear 28oC 81%
OPOK 00000KT 4000 FU NSC 27/23 Q1005 81%
OKARA --- 00KT 4000m Smoke Haze 27oC 1005hp 81%
OPRK 00000KT 6000 NSC 27/23 Q1005 81%
R Y KHAN --- 00KT 6000m Clear 27oC 1005hp 81%
OPRT 00000KT 6000 NSC 16/14 Q1024 86%
RAWALAKOT --- 00KT 6000m Clear 16oC 1024hp 86%
OPSW 00000KT 4000 FU NSC 27/23 Q1004 81%
SAHIWAL --- 00KT 4000m Smoke Haze 27oC 1004hp 81%
OPSG 00000KT 4000 FU NSC 27/25 88%
SARGODHA CITY --- 00KT 4000m Smoke Haze 27oC 88%
OPST 05004KT 4000 FU NSC 27/24 Q1006 NOSIG 84%
SIALKOT A/P NE 04KT 4000m Smoke Haze 27oC 1006hp 84%
OPSKT 00000KT 5000 FU NSC 27/24 84%
SIALKOT CITY --- 00KT 5000m Smoke Haze 27oC 84%
OPSD 281900Z 00000KT 4000 FU FEW018ST SCT035 BKN100 12/07 Q1021 69%
SKARDU --- 00KT 4000m Partly Cloudy 12oC 1021hp 69%
OPTS 00000KT 4000 FU NSC 27/23 77%
T T SINGH --- 00KT 4000m Smoke Haze 27oC 77%